createdAt,value
2022-11-12T00:00:17.563Z,35.45
2022-11-12T00:02:40.214Z,35.42
2022-11-12T00:05:02.692Z,36.95
2022-11-12T00:07:25.321Z,37.47
2022-11-12T00:09:47.790Z,37.08
2022-11-12T00:12:10.329Z,37.63
2022-11-12T00:14:33.125Z,36.03
2022-11-12T00:16:56.919Z,37.05
2022-11-12T00:19:19.430Z,36.85
2022-11-12T00:21:42.153Z,36.45
2022-11-12T00:24:04.940Z,34.50
2022-11-12T00:26:27.565Z,36.47
2022-11-12T00:28:50.640Z,35.08
2022-11-12T00:31:13.806Z,36.38
2022-11-12T00:33:41.710Z,36.30
2022-11-12T00:36:04.883Z,36.72
2022-11-12T00:38:27.935Z,35.83
2022-11-12T00:40:51.181Z,35.25
2022-11-12T00:43:13.810Z,34.53
2022-11-12T00:45:36.500Z,34.90
2022-11-12T00:47:59.194Z,34.95
2022-11-12T00:50:22.927Z,35.13
2022-11-12T00:52:45.875Z,34.17
2022-11-12T00:55:09.062Z,32.88
2022-11-12T00:57:31.580Z,34.03
2022-11-12T00:59:54.141Z,33.67
2022-11-12T01:02:17.143Z,34.30
2022-11-12T01:04:39.977Z,33.85
2022-11-12T01:07:04.376Z,33.13
2022-11-12T01:09:27.597Z,32.97
2022-11-12T01:11:50.434Z,33.75
2022-11-12T01:14:13.033Z,32.70
2022-11-12T01:16:38.567Z,34.63
2022-11-12T01:19:02.079Z,34.38
2022-11-12T01:21:25.965Z,33.85
2022-11-12T01:23:49.802Z,32.92
2022-11-12T01:26:14.764Z,34.17
2022-11-12T01:28:38.044Z,35.00
2022-11-12T01:31:12.702Z,35.47
2022-11-12T01:33:35.676Z,34.85
2022-11-12T01:36:00.289Z,35.08
2022-11-12T01:38:23.338Z,33.63
2022-11-12T01:40:47.306Z,35.08
2022-11-12T01:43:14.603Z,36.10
2022-11-12T01:45:39.607Z,36.15
2022-11-12T01:48:03.411Z,34.63
2022-11-12T01:50:29.152Z,33.58
2022-11-12T01:52:56.712Z,33.05
2022-11-12T01:55:23.407Z,33.67
2022-11-12T01:57:54.202Z,32.05
2022-11-12T02:00:17.703Z,33.20
2022-11-12T02:02:41.324Z,29.65
2022-11-12T02:05:05.765Z,34.55
2022-11-12T02:07:29.311Z,30.88
2022-11-12T02:09:53.491Z,33.13
2022-11-12T02:12:37.175Z,31.67
2022-11-12T02:15:20.279Z,32.40
2022-11-12T02:17:42.980Z,31.70
2022-11-12T02:20:06.085Z,32.78
2022-11-12T02:22:31.150Z,33.22
2022-11-12T02:24:53.907Z,33.05
2022-11-12T02:27:16.761Z,34.63
2022-11-12T02:29:46.459Z,34.08
2022-11-12T02:32:09.994Z,33.55
2022-11-12T02:34:32.493Z,33.38
2022-11-12T02:36:55.448Z,32.42
2022-11-12T02:39:19.960Z,33.35
2022-11-12T02:41:42.442Z,32.38
2022-11-12T02:44:05.213Z,31.63
2022-11-12T02:46:27.938Z,31.45
2022-11-12T02:48:50.358Z,31.65
2022-11-12T02:51:12.946Z,32.00
2022-11-12T02:53:35.913Z,30.98
2022-11-12T02:56:00.135Z,30.55
2022-11-12T02:58:23.722Z,30.02
2022-11-12T03:00:46.372Z,30.33
2022-11-12T03:03:09.363Z,28.25
2022-11-12T03:05:35.463Z,29.52
2022-11-12T03:07:59.465Z,28.55
2022-11-12T03:10:22.250Z,28.30
2022-11-12T03:12:46.319Z,27.40
2022-11-12T03:15:10.295Z,27.35
2022-11-12T03:17:35.180Z,26.92
2022-11-12T03:19:57.874Z,26.80
2022-11-12T03:22:20.537Z,25.60
2022-11-12T03:24:42.876Z,26.17
2022-11-12T03:27:07.165Z,23.83
2022-11-12T03:29:31.145Z,25.65
2022-11-12T03:31:53.816Z,24.40
2022-11-12T03:34:16.554Z,22.45
2022-11-12T03:36:39.656Z,23.02
2022-11-12T03:39:02.303Z,21.83
2022-11-12T03:41:25.344Z,21.10
2022-11-12T03:43:48.120Z,20.13
2022-11-12T03:46:12.130Z,19.80
2022-11-12T03:48:34.903Z,19.20
2022-11-12T03:50:59.354Z,19.02
2022-11-12T03:53:21.793Z,18.70
2022-11-12T03:55:44.267Z,19.13
2022-11-12T03:58:07.181Z,19.60
2022-11-12T04:00:30.577Z,18.30
2022-11-12T04:02:54.474Z,18.73
2022-11-12T04:05:34.649Z,18.02
2022-11-12T04:08:18.711Z,19.20
2022-11-12T04:10:41.459Z,18.95
2022-11-12T04:13:21.900Z,18.35
2022-11-12T04:15:44.837Z,19.00
2022-11-12T04:18:26.220Z,18.10
2022-11-12T04:21:07.892Z,20.05
2022-11-12T04:23:31.011Z,17.73
2022-11-12T04:26:11.212Z,18.65
2022-11-12T04:28:33.543Z,22.42
2022-11-12T04:30:55.283Z,20.20
2022-11-12T04:33:19.694Z,21.08
2022-11-12T04:35:42.177Z,19.85
2022-11-12T04:38:04.546Z,20.05
2022-11-12T04:40:45.695Z,20.08
2022-11-12T04:43:28.739Z,18.73
2022-11-12T04:45:54.221Z,16.92
2022-11-12T04:48:17.042Z,17.67
2022-11-12T04:50:41.727Z,18.98
2022-11-12T04:53:04.589Z,16.65
2022-11-12T04:55:27.388Z,16.98
2022-11-12T04:57:50.026Z,17.42
2022-11-12T05:00:13.860Z,17.35
2022-11-12T05:02:36.222Z,17.25
2022-11-12T05:04:58.728Z,17.38
2022-11-12T05:07:22.873Z,15.93
2022-11-12T05:09:46.020Z,16.50
2022-11-12T05:12:09.149Z,16.40
2022-11-12T05:14:32.380Z,17.15
2022-11-12T05:16:55.275Z,17.30
2022-11-12T05:19:18.758Z,16.83
2022-11-12T05:21:59.311Z,24.38
2022-11-12T05:24:41.183Z,24.30
2022-11-12T05:27:04.875Z,21.92
2022-11-12T05:29:27.784Z,47.88
2022-11-12T05:31:50.389Z,88.38
2022-11-12T05:34:13.159Z,72.72
2022-11-12T05:36:36.300Z,40.28
2022-11-12T05:38:59.260Z,40.28
2022-11-12T05:41:22.877Z,34.45
2022-11-12T05:43:45.547Z,33.67
2022-11-12T05:46:11.503Z,36.85
2022-11-12T05:48:34.437Z,34.60
2022-11-12T05:51:13.572Z,35.80
2022-11-12T05:53:36.843Z,31.55
2022-11-12T05:56:03.040Z,26.40
2022-11-12T05:58:27.632Z,25.55
2022-11-12T06:00:59.267Z,22.77
2022-11-12T06:03:21.970Z,21.75
2022-11-12T06:05:44.503Z,23.10
2022-11-12T06:08:08.520Z,20.38
2022-11-12T06:10:31.600Z,17.45
2022-11-12T06:13:02.094Z,16.05
2022-11-12T06:15:27.364Z,16.98
2022-11-12T06:17:49.963Z,16.05
2022-11-12T06:20:13.541Z,15.38
2022-11-12T06:22:35.908Z,15.15
2022-11-12T06:25:01.805Z,15.57
2022-11-12T06:27:24.756Z,14.48
2022-11-12T06:29:47.078Z,15.35
2022-11-12T06:32:11.220Z,15.70
2022-11-12T06:34:34.053Z,15.70
2022-11-12T06:36:56.818Z,15.85
2022-11-12T06:39:19.236Z,16.88
2022-11-12T06:41:42.024Z,30.50
2022-11-12T06:44:05.854Z,33.05
2022-11-12T06:46:28.491Z,28.60
2022-11-12T06:48:52.280Z,17.45
2022-11-12T06:51:18.955Z,17.58
2022-11-12T06:53:41.373Z,15.60
2022-11-12T06:56:04.884Z,15.40
2022-11-12T06:58:27.776Z,16.63
2022-11-12T07:00:50.660Z,15.77
2022-11-12T07:03:16.488Z,17.10
2022-11-12T07:05:43.365Z,16.45
2022-11-12T07:08:06.229Z,16.95
2022-11-12T07:10:28.803Z,17.33
2022-11-12T07:12:53.535Z,16.58
2022-11-12T07:15:16.396Z,17.60
2022-11-12T07:17:39.006Z,17.55
2022-11-12T07:20:03.978Z,18.75
2022-11-12T07:22:28.453Z,17.73
2022-11-12T07:24:51.233Z,17.65
2022-11-12T07:27:13.826Z,18.67
2022-11-12T07:29:47.643Z,18.23
2022-11-12T07:32:10.969Z,18.40
2022-11-12T07:34:33.462Z,19.05
2022-11-12T07:36:56.371Z,20.33
2022-11-12T07:39:20.544Z,18.85
2022-11-12T07:41:42.921Z,19.02
2022-11-12T07:44:05.383Z,19.63
2022-11-12T07:46:29.421Z,18.60
2022-11-12T07:48:52.124Z,20.55
2022-11-12T07:51:15.820Z,20.30
2022-11-12T07:53:38.291Z,19.92
2022-11-12T07:56:04.775Z,21.08
2022-11-12T07:58:28.721Z,19.38
2022-11-12T08:00:52.001Z,21.85
2022-11-12T08:03:14.768Z,22.17
2022-11-12T08:05:37.449Z,21.83
2022-11-12T08:07:59.772Z,19.85
2022-11-12T08:10:22.611Z,19.30
2022-11-12T08:12:46.760Z,20.63
2022-11-12T08:15:09.569Z,23.25
2022-11-12T08:17:32.161Z,20.73
2022-11-12T08:19:55.480Z,20.83
2022-11-12T08:22:18.114Z,21.17
2022-11-12T08:24:40.767Z,22.50
2022-11-12T08:27:03.752Z,22.13
2022-11-12T08:29:28.036Z,20.65
2022-11-12T08:31:50.947Z,22.13
2022-11-12T08:34:16.219Z,19.80
2022-11-12T08:36:42.984Z,20.60
2022-11-12T08:39:08.201Z,21.65
2022-11-12T08:41:30.960Z,21.77
2022-11-12T08:43:53.353Z,21.67
2022-11-12T08:46:17.629Z,23.05
2022-11-12T08:48:41.329Z,21.52
2022-11-12T08:51:05.535Z,22.15
2022-11-12T08:53:28.783Z,23.70
2022-11-12T08:55:54.948Z,29.30
2022-11-12T08:58:17.981Z,22.65
2022-11-12T09:00:43.314Z,20.80
2022-11-12T09:03:08.721Z,22.80
2022-11-12T09:05:32.079Z,23.50
2022-11-12T09:07:59.217Z,24.27
2022-11-12T09:10:22.426Z,22.48
2022-11-12T09:12:45.154Z,22.65
2022-11-12T09:15:36.373Z,21.58
2022-11-12T09:17:56.726Z,22.58
2022-11-12T09:20:21.149Z,21.80
2022-11-12T09:22:43.548Z,20.23
2022-11-12T09:25:06.753Z,20.10
2022-11-12T09:27:29.488Z,19.38
2022-11-12T09:29:52.130Z,20.33
2022-11-12T09:32:14.970Z,20.15
2022-11-12T09:34:37.656Z,20.05
2022-11-12T09:37:01.307Z,21.02
2022-11-12T09:39:23.874Z,18.88
2022-11-12T09:41:46.229Z,18.38
2022-11-12T09:44:12.558Z,18.38
2022-11-12T09:46:44.700Z,15.63
2022-11-12T09:49:14.136Z,16.60
2022-11-12T09:51:40.892Z,16.73
2022-11-12T09:54:14.969Z,16.88
2022-11-12T09:56:37.607Z,16.90
2022-11-12T09:59:00.777Z,16.67
2022-11-12T10:01:32.889Z,16.95
2022-11-12T10:04:01.534Z,14.50
2022-11-12T10:06:28.935Z,19.05
2022-11-12T10:08:55.559Z,17.38
2022-11-12T10:11:57.684Z,17.00
2022-11-12T10:14:35.970Z,14.70
2022-11-12T10:17:09.041Z,15.60
2022-11-12T10:19:50.906Z,13.85
2022-11-12T10:22:27.505Z,12.73
2022-11-12T10:24:50.807Z,14.15
2022-11-12T10:27:19.455Z,13.70
2022-11-12T10:29:49.269Z,12.07
2022-11-12T10:32:16.368Z,12.10
2022-11-12T10:34:40.380Z,13.23
2022-11-12T10:37:06.988Z,12.57
2022-11-12T10:39:35.259Z,10.32
2022-11-12T10:42:05.512Z,11.55
2022-11-12T10:44:32.321Z,11.02
2022-11-12T10:47:33.015Z,11.45
2022-11-12T10:50:11.978Z,10.23
2022-11-12T10:52:34.791Z,10.27
2022-11-12T10:55:07.009Z,10.48
2022-11-12T10:57:30.292Z,11.63
2022-11-12T11:00:08.941Z,12.10
2022-11-12T11:02:31.543Z,10.43
2022-11-12T11:04:54.505Z,8.57
2022-11-12T11:07:22.843Z,9.57
2022-11-12T11:24:13.112Z,8.63
2022-11-12T11:27:46.702Z,7.18
2022-11-12T11:30:36.350Z,9.02
2022-11-12T11:33:43.566Z,8.52
2022-11-12T11:36:27.800Z,7.80
2022-11-12T11:39:46.426Z,8.93
2022-11-12T11:42:51.819Z,9.23
2022-11-12T11:45:30.446Z,9.57
2022-11-12T11:48:45.165Z,9.18
2022-11-12T11:52:21.782Z,7.55
2022-11-12T11:55:38.200Z,5.88
2022-11-12T11:59:02.458Z,5.05
2022-11-12T12:02:20.873Z,6.40
2022-11-12T12:05:29.315Z,5.65
2022-11-12T12:12:51.143Z,7.97
2022-11-12T12:16:48.053Z,6.07
2022-11-12T12:20:33.030Z,7.07
2022-11-12T12:24:16.688Z,9.15
2022-11-12T12:28:16.481Z,9.15
2022-11-12T12:34:41.066Z,9.40
2022-11-12T12:42:43.858Z,8.13
2022-11-12T12:51:27.730Z,8.77
2022-11-12T12:59:04.508Z,8.18
2022-11-12T13:11:15.569Z,7.45
2022-11-12T13:15:35.347Z,7.13
2022-11-12T13:19:27.810Z,8.23
2022-11-12T13:23:19.122Z,7.25
2022-11-12T13:27:12.896Z,8.57
2022-11-12T13:35:13.195Z,6.93
2022-11-12T13:47:45.510Z,10.68
2022-11-12T14:03:19.983Z,10.02
2022-11-12T14:05:49.528Z,9.50
2022-11-12T14:08:29.792Z,10.55
2022-11-12T14:11:09.477Z,10.48
2022-11-12T14:13:50.438Z,9.38
2022-11-12T14:16:42.450Z,9.95
2022-11-12T14:19:35.391Z,9.45
2022-11-12T14:22:24.880Z,21.23
2022-11-12T14:25:00.266Z,13.07
2022-11-12T14:27:25.996Z,13.32
2022-11-12T14:29:49.817Z,11.02
2022-11-12T14:32:16.557Z,22.10
2022-11-12T14:34:39.808Z,17.45
2022-11-12T14:37:03.208Z,15.55
2022-11-12T14:39:28.718Z,18.17
2022-11-12T14:41:52.045Z,14.52
2022-11-12T14:44:20.815Z,20.17
2022-11-12T14:46:48.260Z,18.40
2022-11-12T14:49:47.078Z,21.48
2022-11-12T14:52:17.302Z,16.13
2022-11-12T14:57:06.980Z,10.57
2022-11-12T14:59:37.495Z,17.95
2022-11-12T15:05:29.823Z,49.45
2022-11-12T15:07:57.307Z,39.50
2022-11-12T15:10:34.953Z,32.00
2022-11-12T15:13:07.135Z,36.65
2022-11-12T15:15:30.913Z,32.97
2022-11-12T15:18:00.775Z,31.13
2022-11-12T15:20:23.984Z,29.90
2022-11-12T15:22:51.919Z,48.08
2022-11-12T15:25:23.623Z,77.07
2022-11-12T15:27:49.479Z,78.22
2022-11-12T15:30:18.179Z,51.15
2022-11-12T15:32:41.552Z,31.80
2022-11-12T15:35:05.618Z,16.50
2022-11-12T15:37:32.093Z,12.40
2022-11-12T15:39:59.467Z,94.47
2022-11-12T15:42:29.276Z,21.60
2022-11-12T15:44:57.925Z,11.88
2022-11-12T15:47:23.244Z,16.40
2022-11-12T15:49:53.288Z,19.27
2022-11-12T15:52:46.845Z,23.15
2022-11-12T15:55:17.866Z,25.55
2022-11-12T15:57:45.405Z,26.83
2022-11-12T16:00:15.765Z,25.08
2022-11-12T16:02:38.681Z,24.65
2022-11-12T16:05:04.479Z,18.35
2022-11-12T16:07:33.143Z,13.95
2022-11-12T16:09:57.055Z,15.65
2022-11-12T16:12:23.067Z,11.75
2022-11-12T16:14:48.254Z,16.27
2022-11-12T16:17:15.169Z,13.25
2022-11-12T16:19:42.010Z,13.95
2022-11-12T16:22:12.563Z,12.98
2022-11-12T16:24:35.865Z,10.30
2022-11-12T16:27:01.584Z,9.90
2022-11-12T16:29:24.620Z,10.20
2022-11-12T16:31:49.260Z,14.43
2022-11-12T16:34:13.204Z,17.52
2022-11-12T16:36:36.156Z,17.98
2022-11-12T16:38:59.119Z,17.38
2022-11-12T16:41:21.998Z,17.73
2022-11-12T16:43:44.876Z,16.88
2022-11-12T16:46:15.965Z,16.38
2022-11-12T16:48:40.800Z,14.30
2022-11-12T16:51:03.607Z,14.70
2022-11-12T16:53:26.773Z,15.63
2022-11-12T16:55:50.017Z,18.15
2022-11-12T16:58:15.326Z,27.83
2022-11-12T17:00:39.088Z,23.05
2022-11-12T17:03:02.201Z,26.33
2022-11-12T17:05:27.262Z,25.38
2022-11-12T17:07:51.195Z,23.75
2022-11-12T17:10:14.406Z,21.92
2022-11-12T17:12:40.992Z,22.45
2022-11-12T17:15:03.828Z,16.20
2022-11-12T17:17:26.580Z,12.70
2022-11-12T17:19:49.528Z,13.27
2022-11-12T17:22:14.073Z,17.98
2022-11-12T17:24:36.646Z,29.73
2022-11-12T17:27:00.424Z,22.20
2022-11-12T17:29:23.531Z,32.35
2022-11-12T17:31:49.405Z,35.55
2022-11-12T17:34:12.644Z,36.08
2022-11-12T17:36:39.297Z,36.30
2022-11-12T17:39:06.824Z,41.38
2022-11-12T17:41:30.057Z,39.10
2022-11-12T17:43:56.376Z,38.92
2022-11-12T17:46:19.013Z,26.65
2022-11-12T17:48:42.598Z,19.90
2022-11-12T17:51:08.222Z,21.33
2022-11-12T17:53:32.026Z,17.75
2022-11-12T17:55:59.543Z,15.60
2022-11-12T17:58:23.393Z,19.40
2022-11-12T18:00:46.113Z,17.20
2022-11-12T18:03:12.104Z,20.75
2022-11-12T18:05:35.180Z,20.13
2022-11-12T18:08:07.523Z,20.65
2022-11-12T18:10:36.533Z,20.40
2022-11-12T18:13:03.425Z,21.83
2022-11-12T18:15:27.401Z,25.00
2022-11-12T18:17:50.918Z,28.27
2022-11-12T18:20:15.852Z,33.63
2022-11-12T18:22:44.730Z,30.63
2022-11-12T18:25:09.223Z,33.58
2022-11-12T18:27:34.652Z,28.70
2022-11-12T18:30:02.104Z,26.92
2022-11-12T18:32:25.324Z,27.17
2022-11-12T18:34:48.780Z,25.60
2022-11-12T18:37:11.292Z,20.88
2022-11-12T18:39:34.794Z,18.30
2022-11-12T18:42:03.677Z,19.88
2022-11-12T18:44:26.371Z,23.75
2022-11-12T18:46:51.241Z,24.33
2022-11-12T18:49:14.401Z,26.80
2022-11-12T18:51:37.926Z,26.77
2022-11-12T18:54:01.375Z,30.95
2022-11-12T18:56:24.393Z,32.80
2022-11-12T18:58:47.967Z,38.88
2022-11-12T19:01:15.994Z,33.70
2022-11-12T19:03:41.836Z,38.72
2022-11-12T19:06:07.616Z,32.80
2022-11-12T19:08:30.818Z,25.42
2022-11-12T19:10:58.861Z,22.95
2022-11-12T19:13:22.029Z,20.05
2022-11-12T19:15:48.611Z,22.95
2022-11-12T19:18:11.743Z,23.70
2022-11-12T19:20:35.903Z,30.85
2022-11-12T19:22:59.499Z,42.78
2022-11-12T19:25:22.205Z,115.82
2022-11-12T19:27:45.387Z,177.13
2022-11-12T19:30:09.363Z,281.55
2022-11-12T19:32:31.940Z,270.30
2022-11-12T19:34:54.691Z,204.52
2022-11-12T19:37:33.014Z,195.93
2022-11-12T19:39:56.568Z,156.82
2022-11-12T19:42:19.182Z,137.25
2022-11-12T19:44:42.234Z,133.35
2022-11-12T19:47:06.820Z,85.80
2022-11-12T19:49:29.876Z,70.05
2022-11-12T19:51:52.490Z,83.95
2022-11-12T19:54:16.492Z,83.63
2022-11-12T19:56:38.883Z,75.63
2022-11-12T19:59:01.943Z,64.72
2022-11-12T20:01:24.536Z,43.83
2022-11-12T20:03:47.131Z,33.03
2022-11-12T20:06:11.747Z,31.88
2022-11-12T20:08:35.363Z,32.10
2022-11-12T20:10:59.746Z,28.15
2022-11-12T20:13:24.763Z,26.75
2022-11-12T20:15:47.455Z,21.58
2022-11-12T20:18:10.281Z,21.77
2022-11-12T20:20:32.924Z,24.30
2022-11-12T20:22:55.645Z,20.63
2022-11-12T20:25:18.143Z,22.13
2022-11-12T20:27:42.590Z,17.58
2022-11-12T20:30:06.266Z,21.20
2022-11-12T20:32:29.313Z,20.88
2022-11-12T20:34:52.120Z,27.20
2022-11-12T20:37:14.775Z,24.95
2022-11-12T20:39:37.678Z,22.67
2022-11-12T20:42:01.235Z,23.50
2022-11-12T20:44:25.564Z,26.60
2022-11-12T20:46:48.298Z,21.20
2022-11-12T20:49:10.946Z,21.67
2022-11-12T20:51:35.140Z,24.80
2022-11-12T20:54:00.704Z,27.35
2022-11-12T20:56:25.107Z,24.92
2022-11-12T20:58:47.777Z,23.63
2022-11-12T21:01:14.722Z,20.48
2022-11-12T21:03:39.692Z,19.70
2022-11-12T21:06:03.449Z,20.83
2022-11-12T21:08:26.328Z,21.35
2022-11-12T21:10:50.311Z,21.52
2022-11-12T21:13:12.844Z,20.58
2022-11-12T21:15:35.975Z,20.67
2022-11-12T21:18:00.043Z,22.00
2022-11-12T21:20:22.940Z,22.83
2022-11-12T21:22:45.752Z,21.80
2022-11-12T21:25:09.329Z,22.95
2022-11-12T21:27:31.807Z,22.77
2022-11-12T21:29:54.301Z,22.05
2022-11-12T21:32:16.894Z,25.13
2022-11-12T21:34:41.256Z,23.48
2022-11-12T21:37:03.874Z,24.45
2022-11-12T21:39:26.804Z,31.00
2022-11-12T21:41:49.430Z,30.08
2022-11-12T21:44:11.866Z,26.25
2022-11-12T21:46:35.969Z,23.25
2022-11-12T21:48:59.486Z,23.83
2022-11-12T21:51:24.996Z,22.63
2022-11-12T21:53:49.447Z,23.02
2022-11-12T21:56:13.830Z,27.60
2022-11-12T21:58:36.772Z,23.08
2022-11-12T22:01:08.277Z,20.30
2022-11-12T22:03:31.862Z,23.30
2022-11-12T22:05:54.489Z,24.05
2022-11-12T22:08:18.855Z,24.35
2022-11-12T22:10:41.142Z,25.10
2022-11-12T22:13:25.909Z,24.92
2022-11-12T22:15:46.990Z,24.38
2022-11-12T22:18:09.864Z,26.05
2022-11-12T22:20:32.711Z,26.80
2022-11-12T22:22:55.206Z,29.08
2022-11-12T22:25:19.125Z,29.50
2022-11-12T22:27:41.851Z,29.27
2022-11-12T22:30:05.231Z,27.17
2022-11-12T22:32:28.287Z,27.88
2022-11-12T22:34:51.313Z,30.67
2022-11-12T22:37:13.684Z,31.20
2022-11-12T22:39:36.230Z,30.98
2022-11-12T22:42:00.423Z,31.05
2022-11-12T22:44:23.491Z,31.25
2022-11-12T22:46:46.358Z,32.33
2022-11-12T22:49:08.888Z,32.35
2022-11-12T22:51:33.492Z,35.00
2022-11-12T22:53:57.779Z,33.78
2022-11-12T22:56:20.479Z,32.90
2022-11-12T22:58:46.523Z,36.80
2022-11-12T23:01:12.579Z,36.38
2022-11-12T23:03:36.390Z,36.25
2022-11-12T23:05:59.851Z,38.78
2022-11-12T23:08:22.540Z,38.25
2022-11-12T23:10:46.069Z,39.95
2022-11-12T23:13:08.934Z,39.35
2022-11-12T23:15:33.101Z,38.47
2022-11-12T23:17:55.508Z,39.38
2022-11-12T23:20:18.478Z,41.10
2022-11-12T23:22:41.049Z,40.13
2022-11-12T23:25:03.903Z,42.10
2022-11-12T23:27:27.109Z,41.15
2022-11-12T23:29:49.405Z,39.40
2022-11-12T23:32:13.646Z,40.08
2022-11-12T23:34:36.128Z,40.00
2022-11-12T23:36:59.096Z,40.55
2022-11-12T23:39:21.881Z,39.28
2022-11-12T23:41:44.941Z,37.00
2022-11-12T23:44:08.044Z,40.53
2022-11-12T23:46:30.492Z,40.28
2022-11-12T23:48:54.597Z,41.80
2022-11-12T23:51:19.507Z,41.97
2022-11-12T23:53:42.985Z,42.50
2022-11-12T23:56:07.395Z,43.83
2022-11-12T23:58:30.413Z,45.42
